Terminal Aerodrome Forecast
Issued by NWS Miami, FL

Home | Current Version | Previous Version | Text Only | Print | Product List | Glossary On
Versions: 1 2 3 4 5 6 7 8 9 10 11 12 13 14 15 16 17 18 19 20 21 22 23 24 25 26 27 28
000
FTUS42 KMFL 201126
TAFFLL
TAF
KFLL 201126Z 2012/2112 12010KT P6SM VCTS SCT025CB BKN060
      TEMPO 2012/2015 VRB15KT 3SM TSRA BKN025CB
     FM202300 11010KT P6SM VCSH SCT025 SCT060
     FM210100 09008KT P6SM FEW025 SCT050=

USA.gov is the U.S. government's official web portal to all federal, state and local government web resources and services.